sensor_id;sensor_type;location;lat;lon;timestamp;P1;durP1;ratioP1;P2;durP2;ratioP2
13171;SDS011;6651;53.200;10.432;2024-03-23T00:54:35;18.20;;;5.47;;
13171;SDS011;6651;53.200;10.432;2024-03-23T00:57:00;14.77;;;4.88;;
13171;SDS011;6651;53.200;10.432;2024-03-23T00:59:26;16.48;;;5.25;;
13171;SDS011;6651;53.200;10.432;2024-03-23T01:01:53;21.73;;;5.22;;
13171;SDS011;6651;53.200;10.432;2024-03-23T01:04:19;16.90;;;5.20;;
13171;SDS011;6651;53.200;10.432;2024-03-23T01:06:45;16.15;;;5.28;;
13171;SDS011;6651;53.200;10.432;2024-03-23T01:09:12;17.92;;;5.70;;
13171;SDS011;6651;53.200;10.432;2024-03-23T01:11:38;16.58;;;5.22;;
13171;SDS011;6651;53.200;10.432;2024-03-23T01:14:04;16.35;;;5.63;;
13171;SDS011;6651;53.200;10.432;2024-03-23T01:16:31;17.83;;;6.47;;
13171;SDS011;6651;53.200;10.432;2024-03-23T01:18:57;17.90;;;7.25;;
13171;SDS011;6651;53.200;10.432;2024-03-23T01:21:22;24.08;;;8.85;;
13171;SDS011;6651;53.200;10.432;2024-03-23T01:23:48;21.17;;;8.18;;
13171;SDS011;6651;53.200;10.432;2024-03-23T01:26:14;20.30;;;8.30;;
13171;SDS011;6651;53.200;10.432;2024-03-23T01:28:39;20.02;;;7.03;;
13171;SDS011;6651;53.200;10.432;2024-03-23T01:31:05;16.00;;;6.10;;
13171;SDS011;6651;53.200;10.432;2024-03-23T01:33:31;19.05;;;6.43;;
13171;SDS011;6651;53.200;10.432;2024-03-23T01:35:56;17.90;;;5.65;;
13171;SDS011;6651;53.200;10.432;2024-03-23T01:38:22;16.05;;;5.05;;
13171;SDS011;6651;53.200;10.432;2024-03-23T01:40:48;18.45;;;5.75;;
13171;SDS011;6651;53.200;10.432;2024-03-23T01:43:13;16.48;;;4.65;;
13171;SDS011;6651;53.200;10.432;2024-03-23T01:45:39;14.40;;;4.80;;
13171;SDS011;6651;53.200;10.432;2024-03-23T01:48:05;19.25;;;5.60;;
13171;SDS011;6651;53.200;10.432;2024-03-23T01:50:31;14.73;;;5.30;;
13171;SDS011;6651;53.200;10.432;2024-03-23T01:53:01;19.02;;;5.25;;
13171;SDS011;6651;53.200;10.432;2024-03-23T01:55:28;15.73;;;4.93;;
13171;SDS011;6651;53.200;10.432;2024-03-23T01:57:56;16.33;;;5.07;;
13171;SDS011;6651;53.200;10.432;2024-03-23T02:00:22;15.65;;;5.05;;
13171;SDS011;6651;53.200;10.432;2024-03-23T02:02:48;15.73;;;5.15;;
13171;SDS011;6651;53.200;10.432;2024-03-23T02:05:14;15.55;;;5.75;;
13171;SDS011;6651;53.200;10.432;2024-03-23T02:07:40;14.25;;;5.05;;
13171;SDS011;6651;53.200;10.432;2024-03-23T02:10:06;14.85;;;4.78;;
13171;SDS011;6651;53.200;10.432;2024-03-23T02:12:33;13.30;;;4.70;;
13171;SDS011;6651;53.200;10.432;2024-03-23T02:14:59;14.90;;;4.63;;
13171;SDS011;6651;53.200;10.432;2024-03-23T02:17:25;14.25;;;4.53;;
13171;SDS011;6651;53.200;10.432;2024-03-23T02:19:51;16.55;;;5.20;;
13171;SDS011;6651;53.200;10.432;2024-03-23T02:22:16;12.93;;;4.82;;
13171;SDS011;6651;53.200;10.432;2024-03-23T02:24:42;12.95;;;4.78;;
13171;SDS011;6651;53.200;10.432;2024-03-23T02:27:08;16.13;;;5.18;;
13171;SDS011;6651;53.200;10.432;2024-03-23T02:29:33;15.25;;;5.03;;
13171;SDS011;6651;53.200;10.432;2024-03-23T02:31:59;14.00;;;4.68;;
13171;SDS011;6651;53.200;10.432;2024-03-23T02:34:25;14.68;;;4.75;;
13171;SDS011;6651;53.200;10.432;2024-03-23T02:36:50;16.42;;;5.45;;
13171;SDS011;6651;53.200;10.432;2024-03-23T02:39:16;12.20;;;4.78;;
13171;SDS011;6651;53.200;10.432;2024-03-23T02:41:41;13.25;;;4.78;;
13171;SDS011;6651;53.200;10.432;2024-03-23T02:44:07;14.13;;;4.93;;
13171;SDS011;6651;53.200;10.432;2024-03-23T02:46:36;18.02;;;5.38;;
13171;SDS011;6651;53.200;10.432;2024-03-23T02:49:03;18.77;;;5.60;;
13171;SDS011;6651;53.200;10.432;2024-03-23T02:51:29;19.92;;;6.47;;
13171;SDS011;6651;53.200;10.432;2024-03-23T02:53:55;18.42;;;6.35;;
13171;SDS011;6651;53.200;10.432;2024-03-23T02:56:21;14.63;;;6.47;;
13171;SDS011;6651;53.200;10.432;2024-03-23T02:58:47;19.25;;;6.60;;
13171;SDS011;6651;53.200;10.432;2024-03-23T03:01:12;17.88;;;6.80;;
13171;SDS011;6651;53.200;10.432;2024-03-23T03:03:38;18.70;;;6.47;;
13171;SDS011;6651;53.200;10.432;2024-03-23T03:06:03;18.48;;;5.97;;
13171;SDS011;6651;53.200;10.432;2024-03-23T03:08:29;18.23;;;6.35;;
13171;SDS011;6651;53.200;10.432;2024-03-23T03:10:55;18.15;;;6.15;;
13171;SDS011;6651;53.200;10.432;2024-03-23T03:13:21;22.58;;;7.22;;
13171;SDS011;6651;53.200;10.432;2024-03-23T03:15:46;20.38;;;5.78;;
13171;SDS011;6651;53.200;10.432;2024-03-23T03:18:12;16.27;;;5.57;;
13171;SDS011;6651;53.200;10.432;2024-03-23T03:20:38;16.52;;;5.53;;
13171;SDS011;6651;53.200;10.432;2024-03-23T03:23:05;17.40;;;5.90;;
13171;SDS011;6651;53.200;10.432;2024-03-23T03:25:34;13.18;;;5.43;;
13171;SDS011;6651;53.200;10.432;2024-03-23T03:28:00;20.23;;;6.55;;
13171;SDS011;6651;53.200;10.432;2024-03-23T03:30:26;19.38;;;6.68;;
13171;SDS011;6651;53.200;10.432;2024-03-23T03:32:53;17.48;;;5.47;;
13171;SDS011;6651;53.200;10.432;2024-03-23T03:35:19;18.75;;;5.18;;
13171;SDS011;6651;53.200;10.432;2024-03-23T03:37:44;16.73;;;5.85;;
13171;SDS011;6651;53.200;10.432;2024-03-23T03:40:10;16.92;;;5.82;;
13171;SDS011;6651;53.200;10.432;2024-03-23T03:42:37;15.80;;;5.30;;
13171;SDS011;6651;53.200;10.432;2024-03-23T03:45:03;16.63;;;5.50;;
13171;SDS011;6651;53.200;10.432;2024-03-23T03:47:29;14.63;;;4.72;;
13171;SDS011;6651;53.200;10.432;2024-03-23T03:49:55;15.38;;;5.25;;
13171;SDS011;6651;53.200;10.432;2024-03-23T03:52:21;12.77;;;4.82;;
13171;SDS011;6651;53.200;10.432;2024-03-23T03:54:46;14.98;;;4.78;;
13171;SDS011;6651;53.200;10.432;2024-03-23T03:57:12;14.15;;;4.45;;
13171;SDS011;6651;53.200;10.432;2024-03-23T03:59:37;18.13;;;4.90;;
13171;SDS011;6651;53.200;10.432;2024-03-23T04:02:03;12.30;;;4.65;;
13171;SDS011;6651;53.200;10.432;2024-03-23T04:04:29;12.57;;;4.85;;
13171;SDS011;6651;53.200;10.432;2024-03-23T04:07:03;9.10;;;4.30;;
13171;SDS011;6651;53.200;10.432;2024-03-23T04:09:30;13.02;;;4.55;;
13171;SDS011;6651;53.200;10.432;2024-03-23T04:11:56;12.00;;;4.50;;
13171;SDS011;6651;53.200;10.432;2024-03-23T04:14:21;12.30;;;4.68;;
13171;SDS011;6651;53.200;10.432;2024-03-23T04:16:47;12.98;;;4.57;;
13171;SDS011;6651;53.200;10.432;2024-03-23T04:19:12;13.73;;;4.63;;
13171;SDS011;6651;53.200;10.432;2024-03-23T04:21:39;15.52;;;4.53;;
13171;SDS011;6651;53.200;10.432;2024-03-23T04:24:04;10.50;;;4.35;;
13171;SDS011;6651;53.200;10.432;2024-03-23T04:26:39;15.05;;;4.93;;
13171;SDS011;6651;53.200;10.432;2024-03-23T04:29:08;17.52;;;5.38;;
13171;SDS011;6651;53.200;10.432;2024-03-23T04:31:34;11.60;;;4.35;;
13171;SDS011;6651;53.200;10.432;2024-03-23T04:34:03;12.65;;;4.15;;
13171;SDS011;6651;53.200;10.432;2024-03-23T04:36:29;13.02;;;4.38;;
13171;SDS011;6651;53.200;10.432;2024-03-23T04:38:56;11.73;;;4.00;;
13171;SDS011;6651;53.200;10.432;2024-03-23T04:41:23;10.50;;;3.85;;
13171;SDS011;6651;53.200;10.432;2024-03-23T04:43:48;14.38;;;4.50;;
13171;SDS011;6651;53.200;10.432;2024-03-23T04:46:14;9.60;;;3.80;;
13171;SDS011;6651;53.200;10.432;2024-03-23T04:48:40;10.95;;;4.20;;
13171;SDS011;6651;53.200;10.432;2024-03-23T04:51:06;14.02;;;4.90;;
13171;SDS011;6651;53.200;10.432;2024-03-23T04:53:31;16.70;;;5.10;;
13171;SDS011;6651;53.200;10.432;2024-03-23T04:55:58;16.25;;;5.03;;
13171;SDS011;6651;53.200;10.432;2024-03-23T04:58:27;19.15;;;5.40;;
13171;SDS011;6651;53.200;10.432;2024-03-23T05:00:56;19.80;;;5.68;;
13171;SDS011;6651;53.200;10.432;2024-03-23T05:03:22;17.25;;;5.43;;
13171;SDS011;6651;53.200;10.432;2024-03-23T05:05:48;15.77;;;5.15;;
13171;SDS011;6651;53.200;10.432;2024-03-23T05:08:15;18.63;;;5.32;;
13171;SDS011;6651;53.200;10.432;2024-03-23T05:10:41;19.67;;;6.18;;
13171;SDS011;6651;53.200;10.432;2024-03-23T05:13:07;16.58;;;5.47;;
13171;SDS011;6651;53.200;10.432;2024-03-23T05:15:33;18.40;;;5.40;;
13171;SDS011;6651;53.200;10.432;2024-03-23T05:17:59;16.60;;;4.95;;
13171;SDS011;6651;53.200;10.432;2024-03-23T05:20:24;17.45;;;5.35;;
13171;SDS011;6651;53.200;10.432;2024-03-23T05:22:50;21.85;;;6.10;;
13171;SDS011;6651;53.200;10.432;2024-03-23T05:25:15;14.10;;;5.25;;
13171;SDS011;6651;53.200;10.432;2024-03-23T05:27:41;20.52;;;6.10;;
13171;SDS011;6651;53.200;10.432;2024-03-23T05:30:07;15.57;;;5.47;;
13171;SDS011;6651;53.200;10.432;2024-03-23T05:32:34;15.35;;;5.47;;
13171;SDS011;6651;53.200;10.432;2024-03-23T05:34:59;17.13;;;5.43;;
13171;SDS011;6651;53.200;10.432;2024-03-23T05:37:26;16.45;;;5.47;;
13171;SDS011;6651;53.200;10.432;2024-03-23T05:39:51;16.80;;;5.28;;
13171;SDS011;6651;53.200;10.432;2024-03-23T05:42:17;16.73;;;5.05;;
13171;SDS011;6651;53.200;10.432;2024-03-23T05:44:46;16.67;;;5.38;;
13171;SDS011;6651;53.200;10.432;2024-03-23T05:47:12;14.82;;;5.05;;
13171;SDS011;6651;53.200;10.432;2024-03-23T05:49:39;21.48;;;6.10;;
13171;SDS011;6651;53.200;10.432;2024-03-23T05:52:07;16.85;;;5.47;;
13171;SDS011;6651;53.200;10.432;2024-03-23T05:54:35;18.23;;;5.55;;
13171;SDS011;6651;53.200;10.432;2024-03-23T05:57:01;19.35;;;5.63;;
13171;SDS011;6651;53.200;10.432;2024-03-23T05:59:27;17.40;;;5.47;;
13171;SDS011;6651;53.200;10.432;2024-03-23T06:01:53;16.88;;;5.00;;
13171;SDS011;6651;53.200;10.432;2024-03-23T06:04:19;14.60;;;5.65;;
13171;SDS011;6651;53.200;10.432;2024-03-23T06:06:46;19.30;;;6.07;;
13171;SDS011;6651;53.200;10.432;2024-03-23T06:09:11;19.30;;;5.88;;
13171;SDS011;6651;53.200;10.432;2024-03-23T06:11:37;17.25;;;5.70;;
13171;SDS011;6651;53.200;10.432;2024-03-23T06:14:03;17.70;;;6.05;;
13171;SDS011;6651;53.200;10.432;2024-03-23T06:16:29;18.58;;;6.10;;
13171;SDS011;6651;53.200;10.432;2024-03-23T06:18:55;18.15;;;5.93;;
13171;SDS011;6651;53.200;10.432;2024-03-23T06:21:21;18.20;;;6.00;;
13171;SDS011;6651;53.200;10.432;2024-03-23T06:23:50;21.02;;;6.85;;
13171;SDS011;6651;53.200;10.432;2024-03-23T06:26:20;21.50;;;6.40;;
13171;SDS011;6651;53.200;10.432;2024-03-23T06:28:46;23.27;;;6.93;;
13171;SDS011;6651;53.200;10.432;2024-03-23T06:31:13;18.63;;;6.45;;
13171;SDS011;6651;53.200;10.432;2024-03-23T06:33:38;17.38;;;6.68;;
13171;SDS011;6651;53.200;10.432;2024-03-23T06:36:05;21.98;;;6.28;;
13171;SDS011;6651;53.200;10.432;2024-03-23T06:38:31;24.27;;;6.88;;
13171;SDS011;6651;53.200;10.432;2024-03-23T06:40:57;17.30;;;6.50;;
13171;SDS011;6651;53.200;10.432;2024-03-23T06:43:22;19.08;;;6.75;;
13171;SDS011;6651;53.200;10.432;2024-03-23T06:45:55;20.08;;;7.03;;
13171;SDS011;6651;53.200;10.432;2024-03-23T06:48:21;20.25;;;6.97;;
13171;SDS011;6651;53.200;10.432;2024-03-23T06:50:47;20.88;;;6.75;;
13171;SDS011;6651;53.200;10.432;2024-03-23T06:53:13;14.10;;;5.78;;
13171;SDS011;6651;53.200;10.432;2024-03-23T06:55:39;15.73;;;6.18;;
13171;SDS011;6651;53.200;10.432;2024-03-23T06:58:04;20.33;;;6.55;;
13171;SDS011;6651;53.200;10.432;2024-03-23T07:00:30;16.40;;;5.95;;
13171;SDS011;6651;53.200;10.432;2024-03-23T07:02:57;16.45;;;6.30;;
13171;SDS011;6651;53.200;10.432;2024-03-23T07:05:23;19.60;;;6.43;;
13171;SDS011;6651;53.200;10.432;2024-03-23T07:07:48;18.67;;;6.60;;
13171;SDS011;6651;53.200;10.432;2024-03-23T07:10:14;16.83;;;6.20;;
13171;SDS011;6651;53.200;10.432;2024-03-23T07:12:40;18.13;;;6.43;;
13171;SDS011;6651;53.200;10.432;2024-03-23T07:15:06;20.90;;;6.72;;
13171;SDS011;6651;53.200;10.432;2024-03-23T07:17:33;19.15;;;6.25;;
13171;SDS011;6651;53.200;10.432;2024-03-23T07:20:00;16.40;;;6.65;;
13171;SDS011;6651;53.200;10.432;2024-03-23T07:22:31;19.92;;;6.07;;
13171;SDS011;6651;53.200;10.432;2024-03-23T07:25:00;18.02;;;5.90;;
13171;SDS011;6651;53.200;10.432;2024-03-23T07:27:26;22.35;;;6.72;;
13171;SDS011;6651;53.200;10.432;2024-03-23T07:29:51;21.00;;;6.65;;
13171;SDS011;6651;53.200;10.432;2024-03-23T07:32:17;19.73;;;6.68;;
13171;SDS011;6651;53.200;10.432;2024-03-23T07:34:42;18.90;;;6.47;;
13171;SDS011;6651;53.200;10.432;2024-03-23T07:37:09;18.60;;;6.50;;
13171;SDS011;6651;53.200;10.432;2024-03-23T07:39:35;15.35;;;6.50;;
13171;SDS011;6651;53.200;10.432;2024-03-23T07:42:01;16.75;;;6.30;;
13171;SDS011;6651;53.200;10.432;2024-03-23T07:44:27;17.17;;;6.60;;
13171;SDS011;6651;53.200;10.432;2024-03-23T07:46:52;13.77;;;5.68;;
13171;SDS011;6651;53.200;10.432;2024-03-23T07:49:18;18.08;;;5.60;;
13171;SDS011;6651;53.200;10.432;2024-03-23T07:51:44;18.63;;;5.00;;
13171;SDS011;6651;53.200;10.432;2024-03-23T07:54:09;18.27;;;5.45;;
13171;SDS011;6651;53.200;10.432;2024-03-23T07:56:35;16.58;;;5.40;;
13171;SDS011;6651;53.200;10.432;2024-03-23T07:59:01;14.40;;;5.32;;
13171;SDS011;6651;53.200;10.432;2024-03-23T08:01:28;18.33;;;5.70;;
13171;SDS011;6651;53.200;10.432;2024-03-23T08:03:54;17.35;;;5.80;;
13171;SDS011;6651;53.200;10.432;2024-03-23T08:06:20;21.20;;;6.05;;
13171;SDS011;6651;53.200;10.432;2024-03-23T08:08:48;17.73;;;5.25;;
13171;SDS011;6651;53.200;10.432;2024-03-23T08:11:16;19.77;;;5.57;;
13171;SDS011;6651;53.200;10.432;2024-03-23T08:13:42;17.90;;;5.68;;
13171;SDS011;6651;53.200;10.432;2024-03-23T08:16:10;18.25;;;5.55;;
13171;SDS011;6651;53.200;10.432;2024-03-23T08:18:36;16.17;;;4.93;;
13171;SDS011;6651;53.200;10.432;2024-03-23T08:21:02;13.88;;;4.20;;
13171;SDS011;6651;53.200;10.432;2024-03-23T08:23:35;13.30;;;4.47;;
13171;SDS011;6651;53.200;10.432;2024-03-23T08:26:06;16.98;;;5.00;;
13171;SDS011;6651;53.200;10.432;2024-03-23T08:28:34;14.80;;;4.78;;
13171;SDS011;6651;53.200;10.432;2024-03-23T08:31:00;15.05;;;4.45;;
13171;SDS011;6651;53.200;10.432;2024-03-23T08:33:28;16.85;;;5.38;;
13171;SDS011;6651;53.200;10.432;2024-03-23T08:35:58;15.38;;;4.68;;
13171;SDS011;6651;53.200;10.432;2024-03-23T08:38:28;15.57;;;4.93;;
13171;SDS011;6651;53.200;10.432;2024-03-23T08:43:23;16.00;;;4.63;;
13171;SDS011;6651;53.200;10.432;2024-03-23T08:45:49;10.93;;;4.15;;
13171;SDS011;6651;53.200;10.432;2024-03-23T08:48:15;10.05;;;3.75;;
13171;SDS011;6651;53.200;10.432;2024-03-23T08:50:41;11.45;;;4.35;;
13171;SDS011;6651;53.200;10.432;2024-03-23T08:53:07;14.30;;;4.15;;
13171;SDS011;6651;53.200;10.432;2024-03-23T08:55:33;16.23;;;4.80;;
13171;SDS011;6651;53.200;10.432;2024-03-23T08:57:58;12.55;;;4.07;;
13171;SDS011;6651;53.200;10.432;2024-03-23T09:00:25;10.38;;;4.05;;
13171;SDS011;6651;53.200;10.432;2024-03-23T09:02:51;15.43;;;4.10;;
13171;SDS011;6651;53.200;10.432;2024-03-23T09:05:16;14.23;;;4.03;;
13171;SDS011;6651;53.200;10.432;2024-03-23T09:07:42;13.32;;;3.83;;
13171;SDS011;6651;53.200;10.432;2024-03-23T09:10:08;11.60;;;3.85;;
13171;SDS011;6651;53.200;10.432;2024-03-23T09:12:33;9.77;;;3.47;;
13171;SDS011;6651;53.200;10.432;2024-03-23T09:14:59;12.77;;;3.63;;
13171;SDS011;6651;53.200;10.432;2024-03-23T09:17:24;11.50;;;3.70;;
13171;SDS011;6651;53.200;10.432;2024-03-23T09:19:50;16.92;;;4.30;;
13171;SDS011;6651;53.200;10.432;2024-03-23T09:22:16;11.35;;;3.40;;
13171;SDS011;6651;53.200;10.432;2024-03-23T09:24:41;14.00;;;3.95;;
13171;SDS011;6651;53.200;10.432;2024-03-23T09:27:07;10.82;;;3.33;;
13171;SDS011;6651;53.200;10.432;2024-03-23T09:29:33;10.40;;;3.40;;
13171;SDS011;6651;53.200;10.432;2024-03-23T09:31:58;13.38;;;3.60;;
13171;SDS011;6651;53.200;10.432;2024-03-23T09:34:24;10.85;;;3.00;;
13171;SDS011;6651;53.200;10.432;2024-03-23T09:36:53;15.40;;;3.50;;
13171;SDS011;6651;53.200;10.432;2024-03-23T09:39:18;12.68;;;3.60;;
13171;SDS011;6651;53.200;10.432;2024-03-23T09:41:44;8.57;;;3.45;;
13171;SDS011;6651;53.200;10.432;2024-03-23T09:44:11;9.63;;;3.25;;
13171;SDS011;6651;53.200;10.432;2024-03-23T09:46:36;13.85;;;3.55;;
13171;SDS011;6651;53.200;10.432;2024-03-23T09:49:04;9.48;;;3.28;;
13171;SDS011;6651;53.200;10.432;2024-03-23T09:51:34;10.73;;;3.17;;
13171;SDS011;6651;53.200;10.432;2024-03-23T09:54:01;10.63;;;3.20;;
13171;SDS011;6651;53.200;10.432;2024-03-23T09:56:26;11.57;;;3.60;;
13171;SDS011;6651;53.200;10.432;2024-03-23T09:58:59;11.00;;;3.35;;
13171;SDS011;6651;53.200;10.432;2024-03-23T10:01:26;9.02;;;3.15;;
13171;SDS011;6651;53.200;10.432;2024-03-23T10:03:51;13.75;;;3.72;;
13171;SDS011;6651;53.200;10.432;2024-03-23T10:06:17;9.23;;;2.97;;
13171;SDS011;6651;53.200;10.432;2024-03-23T10:08:47;8.82;;;3.20;;
13171;SDS011;6651;53.200;10.432;2024-03-23T10:11:13;11.43;;;3.05;;
13171;SDS011;6651;53.200;10.432;2024-03-23T10:13:44;11.60;;;3.70;;
13171;SDS011;6651;53.200;10.432;2024-03-23T10:16:11;9.63;;;3.47;;
13171;SDS011;6651;53.200;10.432;2024-03-23T10:18:37;10.57;;;3.30;;
13171;SDS011;6651;53.200;10.432;2024-03-23T10:21:08;11.75;;;3.70;;
13171;SDS011;6651;53.200;10.432;2024-03-23T10:23:36;10.70;;;3.25;;
13171;SDS011;6651;53.200;10.432;2024-03-23T10:28:50;12.10;;;3.10;;
13171;SDS011;6651;53.200;10.432;2024-03-23T10:31:30;10.45;;;3.22;;
13171;SDS011;6651;53.200;10.432;2024-03-23T10:33:56;9.20;;;2.80;;
13171;SDS011;6651;53.200;10.432;2024-03-23T10:36:22;9.93;;;3.05;;
13171;SDS011;6651;53.200;10.432;2024-03-23T10:38:50;9.77;;;2.63;;
13171;SDS011;6651;53.200;10.432;2024-03-23T10:41:17;9.30;;;2.97;;
13171;SDS011;6651;53.200;10.432;2024-03-23T10:43:43;9.60;;;2.92;;
13171;SDS011;6651;53.200;10.432;2024-03-23T10:46:11;9.55;;;3.30;;
13171;SDS011;6651;53.200;10.432;2024-03-23T10:48:37;8.27;;;3.40;;
13171;SDS011;6651;53.200;10.432;2024-03-23T10:51:03;9.82;;;3.33;;
13171;SDS011;6651;53.200;10.432;2024-03-23T10:53:30;7.07;;;2.90;;
13171;SDS011;6651;53.200;10.432;2024-03-23T10:55:58;8.07;;;2.95;;
13171;SDS011;6651;53.200;10.432;2024-03-23T10:58:46;8.50;;;3.17;;
13171;SDS011;6651;53.200;10.432;2024-03-23T11:01:14;7.00;;;2.88;;
13171;SDS011;6651;53.200;10.432;2024-03-23T11:03:50;7.70;;;3.22;;
13171;SDS011;6651;53.200;10.432;2024-03-23T11:06:33;12.38;;;3.47;;
13171;SDS011;6651;53.200;10.432;2024-03-23T11:09:03;9.82;;;3.60;;
13171;SDS011;6651;53.200;10.432;2024-03-23T11:11:28;9.35;;;3.30;;
13171;SDS011;6651;53.200;10.432;2024-03-23T11:13:57;8.63;;;3.25;;
13171;SDS011;6651;53.200;10.432;2024-03-23T11:16:25;9.10;;;3.03;;
13171;SDS011;6651;53.200;10.432;2024-03-23T11:22:01;8.20;;;3.00;;
13171;SDS011;6651;53.200;10.432;2024-03-23T11:24:27;8.27;;;2.80;;
13171;SDS011;6651;53.200;10.432;2024-03-23T11:26:53;7.20;;;2.67;;
13171;SDS011;6651;53.200;10.432;2024-03-23T11:29:18;7.00;;;2.92;;
13171;SDS011;6651;53.200;10.432;2024-03-23T11:34:17;8.15;;;2.75;;
13171;SDS011;6651;53.200;10.432;2024-03-23T11:36:43;8.30;;;2.90;;
13171;SDS011;6651;53.200;10.432;2024-03-23T11:39:13;7.70;;;2.80;;
13171;SDS011;6651;53.200;10.432;2024-03-23T11:41:49;9.70;;;3.00;;
13171;SDS011;6651;53.200;10.432;2024-03-23T11:44:19;8.25;;;3.10;;
13171;SDS011;6651;53.200;10.432;2024-03-23T11:46:50;7.90;;;2.95;;
13171;SDS011;6651;53.200;10.432;2024-03-23T11:49:21;7.53;;;2.70;;
13171;SDS011;6651;53.200;10.432;2024-03-23T11:51:47;7.68;;;3.03;;
13171;SDS011;6651;53.200;10.432;2024-03-23T11:54:13;6.70;;;2.90;;
13171;SDS011;6651;53.200;10.432;2024-03-23T11:56:39;8.68;;;2.83;;
13171;SDS011;6651;53.200;10.432;2024-03-23T11:59:06;5.25;;;2.22;;
13171;SDS011;6651;53.200;10.432;2024-03-23T12:01:32;3.13;;;1.60;;
13171;SDS011;6651;53.200;10.432;2024-03-23T12:03:58;3.95;;;1.50;;
13171;SDS011;6651;53.200;10.432;2024-03-23T12:06:23;3.40;;;1.60;;
13171;SDS011;6651;53.200;10.432;2024-03-23T12:08:49;3.75;;;1.70;;
13171;SDS011;6651;53.200;10.432;2024-03-23T12:11:15;5.35;;;1.85;;
13171;SDS011;6651;53.200;10.432;2024-03-23T12:13:42;6.85;;;2.63;;
13171;SDS011;6651;53.200;10.432;2024-03-23T12:16:14;7.00;;;2.67;;
13171;SDS011;6651;53.200;10.432;2024-03-23T12:18:46;8.52;;;3.40;;
13171;SDS011;6651;53.200;10.432;2024-03-23T12:21:14;8.77;;;3.13;;
13171;SDS011;6651;53.200;10.432;2024-03-23T12:23:40;5.93;;;2.70;;
13171;SDS011;6651;53.200;10.432;2024-03-23T12:26:06;8.25;;;2.90;;
13171;SDS011;6651;53.200;10.432;2024-03-23T12:28:32;6.82;;;2.58;;
13171;SDS011;6651;53.200;10.432;2024-03-23T12:30:57;8.63;;;3.05;;
13171;SDS011;6651;53.200;10.432;2024-03-23T12:33:24;12.05;;;3.15;;
13171;SDS011;6651;53.200;10.432;2024-03-23T12:35:50;9.55;;;3.30;;
13171;SDS011;6651;53.200;10.432;2024-03-23T12:38:16;8.38;;;2.95;;
13171;SDS011;6651;53.200;10.432;2024-03-23T12:40:42;7.78;;;2.90;;
13171;SDS011;6651;53.200;10.432;2024-03-23T12:43:13;7.18;;;2.75;;
13171;SDS011;6651;53.200;10.432;2024-03-23T12:45:38;8.20;;;3.03;;
13171;SDS011;6651;53.200;10.432;2024-03-23T12:48:04;7.22;;;2.72;;
13171;SDS011;6651;53.200;10.432;2024-03-23T12:50:30;6.65;;;3.10;;
13171;SDS011;6651;53.200;10.432;2024-03-23T12:52:56;8.00;;;3.10;;
13171;SDS011;6651;53.200;10.432;2024-03-23T12:55:21;6.30;;;3.00;;
13171;SDS011;6651;53.200;10.432;2024-03-23T12:57:47;5.93;;;2.58;;
13171;SDS011;6651;53.200;10.432;2024-03-23T13:00:13;7.13;;;2.90;;
13171;SDS011;6651;53.200;10.432;2024-03-23T13:02:40;6.60;;;2.92;;
13171;SDS011;6651;53.200;10.432;2024-03-23T13:05:06;9.38;;;3.08;;
13171;SDS011;6651;53.200;10.432;2024-03-23T13:07:33;6.30;;;3.00;;
13171;SDS011;6651;53.200;10.432;2024-03-23T13:10:00;6.20;;;2.50;;
13171;SDS011;6651;53.200;10.432;2024-03-23T13:12:26;5.38;;;2.50;;
13171;SDS011;6651;53.200;10.432;2024-03-23T13:14:51;5.70;;;2.50;;
13171;SDS011;6651;53.200;10.432;2024-03-23T13:17:17;5.00;;;2.47;;
13171;SDS011;6651;53.200;10.432;2024-03-23T13:19:43;4.95;;;2.20;;
13171;SDS011;6651;53.200;10.432;2024-03-23T13:22:09;4.22;;;1.80;;
13171;SDS011;6651;53.200;10.432;2024-03-23T13:24:36;5.18;;;2.72;;
13171;SDS011;6651;53.200;10.432;2024-03-23T13:27:02;3.22;;;1.92;;
13171;SDS011;6651;53.200;10.432;2024-03-23T13:29:30;4.55;;;2.00;;
13171;SDS011;6651;53.200;10.432;2024-03-23T13:31:56;4.32;;;1.92;;
13171;SDS011;6651;53.200;10.432;2024-03-23T13:34:21;3.78;;;1.65;;
13171;SDS011;6651;53.200;10.432;2024-03-23T13:36:47;4.45;;;2.15;;
13171;SDS011;6651;53.200;10.432;2024-03-23T13:39:13;4.97;;;2.22;;
13171;SDS011;6651;53.200;10.432;2024-03-23T13:41:40;4.10;;;2.20;;
13171;SDS011;6651;53.200;10.432;2024-03-23T13:44:07;3.72;;;1.80;;
13171;SDS011;6651;53.200;10.432;2024-03-23T13:46:38;3.20;;;1.73;;
13171;SDS011;6651;53.200;10.432;2024-03-23T13:49:05;3.28;;;1.83;;
13171;SDS011;6651;53.200;10.432;2024-03-23T13:51:31;6.65;;;2.17;;
13171;SDS011;6651;53.200;10.432;2024-03-23T13:53:57;4.75;;;2.30;;
13171;SDS011;6651;53.200;10.432;2024-03-23T13:56:25;3.78;;;2.25;;
13171;SDS011;6651;53.200;10.432;2024-03-23T13:58:57;5.65;;;2.53;;
13171;SDS011;6651;53.200;10.432;2024-03-23T14:01:23;5.50;;;2.40;;
13171;SDS011;6651;53.200;10.432;2024-03-23T14:03:49;5.20;;;2.50;;
13171;SDS011;6651;53.200;10.432;2024-03-23T14:06:15;4.38;;;2.10;;
13171;SDS011;6651;53.200;10.432;2024-03-23T14:08:41;3.60;;;1.67;;
13171;SDS011;6651;53.200;10.432;2024-03-23T14:11:08;3.47;;;1.80;;
13171;SDS011;6651;53.200;10.432;2024-03-23T14:13:34;3.72;;;1.88;;
13171;SDS011;6651;53.200;10.432;2024-03-23T14:16:00;3.17;;;1.80;;
13171;SDS011;6651;53.200;10.432;2024-03-23T14:18:26;2.80;;;1.58;;
13171;SDS011;6651;53.200;10.432;2024-03-23T14:20:55;2.80;;;1.77;;
13171;SDS011;6651;53.200;10.432;2024-03-23T14:23:23;5.30;;;2.20;;
13171;SDS011;6651;53.200;10.432;2024-03-23T14:25:54;4.50;;;1.92;;
13171;SDS011;6651;53.200;10.432;2024-03-23T14:28:20;3.70;;;1.95;;
13171;SDS011;6651;53.200;10.432;2024-03-23T14:30:46;3.78;;;1.90;;
13171;SDS011;6651;53.200;10.432;2024-03-23T14:33:12;3.40;;;2.20;;
13171;SDS011;6651;53.200;10.432;2024-03-23T14:35:38;3.72;;;1.60;;
13171;SDS011;6651;53.200;10.432;2024-03-23T14:38:04;1.92;;;1.67;;
13171;SDS011;6651;53.200;10.432;2024-03-23T14:40:30;3.30;;;1.85;;
13171;SDS011;6651;53.200;10.432;2024-03-23T14:42:56;3.13;;;1.65;;
13171;SDS011;6651;53.200;10.432;2024-03-23T14:45:21;3.33;;;2.20;;
13171;SDS011;6651;53.200;10.432;2024-03-23T14:47:48;3.65;;;1.50;;
13171;SDS011;6651;53.200;10.432;2024-03-23T14:50:14;2.17;;;1.48;;
13171;SDS011;6651;53.200;10.432;2024-03-23T14:52:42;3.30;;;1.50;;
13171;SDS011;6651;53.200;10.432;2024-03-23T14:55:09;1.80;;;1.27;;
13171;SDS011;6651;53.200;10.432;2024-03-23T14:57:34;3.45;;;1.75;;
13171;SDS011;6651;53.200;10.432;2024-03-23T15:00:00;1.63;;;1.17;;
13171;SDS011;6651;53.200;10.432;2024-03-23T15:02:27;4.93;;;1.70;;
13171;SDS011;6651;53.200;10.432;2024-03-23T15:04:55;4.00;;;1.60;;
13171;SDS011;6651;53.200;10.432;2024-03-23T15:07:20;2.50;;;1.27;;
13171;SDS011;6651;53.200;10.432;2024-03-23T15:09:46;3.67;;;1.80;;
13171;SDS011;6651;53.200;10.432;2024-03-23T15:12:12;3.05;;;1.52;;
13171;SDS011;6651;53.200;10.432;2024-03-23T15:14:37;3.40;;;1.90;;
13171;SDS011;6651;53.200;10.432;2024-03-23T15:17:03;4.85;;;1.90;;
13171;SDS011;6651;53.200;10.432;2024-03-23T15:19:32;4.43;;;1.90;;
13171;SDS011;6651;53.200;10.432;2024-03-23T15:21:58;2.47;;;1.70;;
13171;SDS011;6651;53.200;10.432;2024-03-23T15:24:23;5.10;;;1.80;;
13171;SDS011;6651;53.200;10.432;2024-03-23T15:26:50;4.20;;;1.80;;
13171;SDS011;6651;53.200;10.432;2024-03-23T15:29:17;3.28;;;1.70;;
13171;SDS011;6651;53.200;10.432;2024-03-23T15:31:43;4.07;;;1.83;;
13171;SDS011;6651;53.200;10.432;2024-03-23T15:34:10;4.30;;;1.88;;
13171;SDS011;6651;53.200;10.432;2024-03-23T15:36:39;4.65;;;1.92;;
13171;SDS011;6651;53.200;10.432;2024-03-23T15:39:05;5.88;;;2.05;;